createdAt,value
2022-09-10T00:03:22.235Z,10.70
2022-09-10T00:08:25.081Z,8.10
2022-09-10T00:13:27.838Z,6.90
2022-09-10T00:18:31.320Z,7.20
2022-09-10T00:23:35.217Z,6.80
2022-09-10T00:28:38.383Z,8.80
2022-09-10T00:33:42.115Z,9.10
2022-09-10T00:38:45.247Z,8.40
2022-09-10T00:48:59.086Z,8.60
2022-09-10T00:54:03.901Z,7.70
2022-09-10T00:59:10.220Z,7.90
2022-09-10T01:04:13.202Z,9.10
2022-09-10T01:09:16.276Z,8.40
2022-09-10T01:19:53.746Z,8.70
2022-09-10T01:25:05.080Z,8.50
2022-09-10T01:30:09.820Z,8.50
2022-09-10T01:35:18.747Z,7.80
2022-09-10T01:40:30.137Z,9.50
2022-09-10T01:45:47.835Z,8.30
2022-09-10T01:51:34.519Z,7.10
2022-09-10T01:56:53.505Z,7.80
2022-09-10T02:02:04.147Z,6.80
2022-09-10T02:07:07.695Z,8.30
2022-09-10T02:12:19.762Z,7.20
2022-09-10T02:17:28.383Z,8.60
2022-09-10T02:22:33.941Z,8.10
2022-09-10T02:27:38.374Z,9.00
2022-09-10T02:32:41.161Z,8.00
2022-09-10T02:37:43.949Z,8.90
2022-09-10T02:42:47.196Z,7.20
2022-09-10T02:47:50.163Z,7.50
2022-09-10T02:52:53.986Z,11.20
2022-09-10T02:57:56.795Z,8.80
2022-09-10T03:03:02.954Z,9.00
2022-09-10T03:08:06.787Z,8.60
2022-09-10T03:13:09.567Z,11.10
2022-09-10T03:18:13.013Z,7.80
2022-09-10T03:23:16.377Z,9.80
2022-09-10T03:28:20.252Z,7.30
2022-09-10T03:33:23.050Z,9.10
2022-09-10T03:38:27.150Z,10.10
2022-09-10T03:43:30.638Z,7.50
2022-09-10T03:48:33.403Z,9.00
2022-09-10T03:53:36.546Z,7.00
2022-09-10T04:03:42.308Z,8.30
2022-09-10T04:08:49.759Z,9.20
2022-09-10T04:13:53.014Z,8.80
2022-09-10T04:18:55.789Z,8.10
2022-09-10T04:24:00.865Z,10.80
2022-09-10T04:29:04.021Z,9.20
2022-09-10T04:34:07.830Z,8.70
2022-09-10T04:39:10.701Z,9.40
2022-09-10T04:44:13.841Z,7.70
2022-09-10T04:54:19.861Z,14.10
2022-09-10T04:59:22.688Z,9.50
2022-09-10T05:04:25.623Z,10.10
2022-09-10T05:09:34.307Z,8.80
2022-09-10T05:14:38.136Z,9.00
2022-09-10T05:19:40.987Z,9.10
2022-09-10T05:24:44.318Z,10.80
2022-09-10T05:29:47.086Z,11.20
2022-09-10T05:34:49.931Z,10.10
2022-09-10T05:39:52.754Z,12.20
2022-09-10T05:44:55.594Z,14.50
2022-09-10T05:49:58.374Z,8.30
2022-09-10T05:55:01.194Z,10.80
2022-09-10T06:00:08.077Z,8.80
2022-09-10T06:05:10.909Z,9.40
2022-09-10T06:10:14.586Z,14.00
2022-09-10T06:15:17.917Z,10.70
2022-09-10T06:20:20.758Z,9.90
2022-09-10T06:25:24.232Z,9.30
2022-09-10T06:30:27.096Z,10.80
2022-09-10T06:40:33.236Z,8.10
2022-09-10T06:45:40.146Z,8.80
2022-09-10T06:50:51.239Z,8.40
2022-09-10T06:55:54.130Z,8.10
2022-09-10T07:06:04.407Z,10.10
2022-09-10T07:11:13.009Z,8.80
2022-09-10T07:16:25.921Z,9.00
2022-09-10T07:21:29.194Z,8.20
2022-09-10T07:26:32.129Z,9.80
2022-09-10T07:36:38.285Z,9.90
2022-09-10T07:41:41.033Z,10.40
2022-09-10T07:46:43.954Z,11.20
2022-09-10T07:56:50.244Z,10.50
2022-09-10T08:06:56.900Z,9.40
2022-09-10T08:11:59.990Z,11.50
2022-09-10T08:17:02.838Z,11.60
2022-09-10T08:22:09.143Z,9.40
2022-09-10T08:27:16.544Z,10.30
2022-09-10T08:32:19.502Z,10.40
2022-09-10T08:42:33.722Z,12.40
2022-09-10T08:47:44.735Z,12.00
2022-09-10T08:52:53.511Z,9.90
2022-09-10T08:58:01.078Z,8.20
2022-09-10T09:03:45.412Z,11.30
2022-09-10T09:08:50.275Z,8.50
2022-09-10T09:14:21.635Z,14.10
2022-09-10T09:19:53.444Z,15.30
2022-09-10T09:25:05.275Z,13.00
2022-09-10T09:30:37.297Z,13.10
2022-09-10T09:35:53.229Z,9.80
2022-09-10T09:40:59.239Z,16.20
2022-09-10T09:46:03.043Z,13.50
2022-09-10T09:51:11.694Z,9.70
2022-09-10T09:56:25.096Z,11.30
2022-09-10T10:01:29.088Z,10.90
2022-09-10T10:06:47.352Z,12.60
2022-09-10T10:11:56.074Z,12.20
2022-09-10T10:17:00.979Z,15.10
2022-09-10T10:22:19.460Z,21.40
2022-09-10T10:27:30.075Z,14.50
2022-09-10T10:32:44.829Z,16.60
2022-09-10T10:38:01.060Z,14.40
2022-09-10T10:43:54.733Z,15.50
2022-09-10T10:49:25.945Z,16.10
2022-09-10T10:54:47.777Z,20.70
2022-09-10T11:00:04.582Z,17.70
2022-09-10T11:05:18.496Z,17.90
2022-09-10T11:10:42.784Z,16.70
2022-09-10T11:15:59.625Z,22.70
2022-09-10T11:21:30.079Z,20.00
2022-09-10T11:26:58.161Z,16.70
2022-09-10T11:32:27.169Z,24.00
2022-09-10T11:37:43.462Z,22.10
2022-09-10T11:42:52.408Z,20.60
2022-09-10T11:48:14.864Z,18.00
2022-09-10T11:53:22.072Z,20.40
2022-09-10T11:58:34.971Z,21.60
2022-09-10T12:09:01.738Z,21.60
2022-09-10T12:14:13.650Z,20.20
2022-09-10T12:19:38.788Z,22.90
2022-09-10T12:24:55.700Z,21.60
2022-09-10T12:30:36.347Z,22.60
2022-09-10T12:35:50.958Z,19.60
2022-09-10T12:40:55.823Z,21.90
2022-09-10T12:46:12.193Z,23.20
2022-09-10T12:51:18.122Z,20.60
2022-09-10T12:56:29.981Z,23.10
2022-09-10T13:01:46.378Z,18.90
2022-09-10T13:06:49.661Z,18.90
2022-09-10T13:11:56.965Z,18.10
2022-09-10T13:16:59.867Z,17.30
2022-09-10T13:27:36.511Z,21.60
2022-09-10T13:32:44.437Z,21.60
2022-09-10T13:38:08.898Z,21.90
2022-09-10T13:43:23.516Z,23.30
2022-09-10T13:48:30.825Z,23.70
2022-09-10T13:53:35.197Z,23.10
2022-09-10T13:58:42.514Z,26.60
2022-09-10T14:03:45.548Z,26.70
2022-09-10T14:09:03.231Z,28.70
2022-09-10T14:14:11.352Z,29.20
2022-09-10T14:19:30.592Z,29.90
2022-09-10T14:24:36.116Z,36.70
2022-09-10T14:29:39.398Z,33.70
2022-09-10T14:34:42.263Z,35.40
2022-09-10T14:44:47.945Z,34.10
2022-09-10T14:49:52.344Z,42.70
2022-09-10T14:54:56.272Z,35.80
2022-09-10T15:00:00.057Z,39.10
2022-09-10T15:05:02.962Z,34.80
2022-09-10T15:15:17.589Z,30.10
2022-09-10T15:20:27.135Z,31.60
2022-09-10T15:25:38.731Z,30.80
2022-09-10T15:30:41.754Z,36.30
2022-09-10T15:40:49.823Z,41.40
2022-09-10T15:45:52.667Z,49.00
2022-09-10T15:50:56.475Z,49.50
2022-09-10T15:56:04.976Z,44.50
2022-09-10T16:01:12.563Z,30.20
2022-09-10T16:06:15.930Z,32.00
2022-09-10T16:11:20.492Z,38.90
2022-09-10T16:16:26.836Z,40.40
2022-09-10T16:21:32.288Z,47.20
2022-09-10T16:26:38.403Z,42.10
2022-09-10T16:31:43.043Z,36.80
2022-09-10T16:36:48.967Z,36.10
2022-09-10T16:41:52.336Z,36.80
2022-09-10T16:46:57.718Z,38.90
2022-09-10T16:52:00.560Z,35.70
2022-09-10T16:57:03.473Z,34.70
2022-09-10T17:02:07.637Z,46.80
2022-09-10T17:07:10.579Z,54.20
2022-09-10T17:17:16.009Z,48.60
2022-09-10T17:22:18.860Z,53.80
2022-09-10T17:27:25.390Z,49.50
2022-09-10T17:32:28.766Z,44.70
2022-09-10T17:37:32.479Z,41.70
2022-09-10T17:42:35.284Z,45.20
2022-09-10T17:47:39.308Z,36.20
2022-09-10T17:52:45.998Z,38.40
2022-09-10T17:57:49.318Z,35.90
2022-09-10T18:02:53.370Z,37.00
2022-09-10T18:07:56.607Z,34.10
2022-09-10T18:13:00.536Z,36.10
2022-09-10T18:18:03.446Z,35.00
2022-09-10T18:23:07.116Z,45.10
2022-09-10T18:28:09.928Z,41.40
2022-09-10T18:33:14.013Z,37.60
2022-09-10T18:38:16.811Z,35.30
2022-09-10T18:43:20.252Z,63.30
2022-09-10T18:48:23.042Z,70.40
2022-09-10T18:53:25.829Z,59.50
2022-09-10T18:58:28.626Z,39.20
2022-09-10T19:03:35.562Z,38.00
2022-09-10T19:08:39.874Z,38.30
2022-09-10T19:13:42.614Z,39.80
2022-09-10T19:18:56.352Z,35.50
2022-09-10T19:24:03.864Z,33.80
2022-09-10T19:29:07.143Z,37.20
2022-09-10T19:34:12.147Z,37.90
2022-09-10T19:39:17.091Z,34.40
2022-09-10T19:44:20.278Z,23.90
2022-09-10T19:49:23.001Z,22.40
2022-09-10T19:54:28.336Z,22.80
2022-09-10T19:59:31.123Z,22.20
2022-09-10T20:04:38.169Z,26.00
2022-09-10T20:09:41.026Z,22.90
2022-09-10T20:14:43.816Z,26.70
2022-09-10T20:19:46.590Z,24.40
2022-09-10T20:24:49.324Z,27.80
2022-09-10T20:29:52.169Z,31.10
2022-09-10T20:34:56.588Z,37.50
2022-09-10T20:39:59.387Z,29.50
2022-09-10T20:45:02.708Z,30.40
2022-09-10T20:50:06.620Z,26.00
2022-09-10T20:55:09.608Z,24.70
2022-09-10T21:00:13.224Z,22.60
2022-09-10T21:05:16.233Z,26.40
2022-09-10T21:10:19.193Z,27.00
2022-09-10T21:15:22.016Z,34.40
2022-09-10T21:20:24.785Z,26.00
2022-09-10T21:25:28.195Z,25.70
2022-09-10T21:30:31.244Z,26.40
2022-09-10T21:40:37.241Z,24.70
2022-09-10T21:45:40.031Z,21.20
2022-09-10T21:50:42.781Z,24.40
2022-09-10T21:55:45.628Z,21.80
2022-09-10T22:00:48.496Z,19.30
2022-09-10T22:05:51.375Z,22.30
2022-09-10T22:10:54.289Z,21.50
2022-09-10T22:15:58.471Z,24.10
2022-09-10T22:21:02.255Z,20.60
2022-09-10T22:26:07.256Z,22.20
2022-09-10T22:31:13.348Z,23.00
2022-09-10T22:36:28.971Z,27.20
2022-09-10T22:41:34.169Z,23.10
2022-09-10T22:46:38.112Z,23.20
2022-09-10T22:51:41.221Z,28.00
2022-09-10T22:56:44.833Z,22.80
2022-09-10T23:01:47.873Z,27.80
2022-09-10T23:06:50.837Z,24.90
2022-09-10T23:11:54.344Z,28.90
2022-09-10T23:16:57.093Z,19.00
2022-09-10T23:21:59.873Z,31.10
2022-09-10T23:27:04.021Z,32.20
2022-09-10T23:32:07.002Z,33.80
2022-09-10T23:42:13.101Z,32.80
2022-09-10T23:47:15.893Z,33.50
2022-09-10T23:52:19.350Z,34.50
2022-09-10T23:57:22.176Z,32.40
